Wetterdaten: Woche 06.09.21 - 12.09.21 (KW36)
Datum Zeit Temp. Aussen Temp. o. S. Temp +5cm Feuchte Auss Luftdruck Regen Sonnenschein Regendauer Solar Windben Empfang
06.09.2021 00:00 16,1 C 14,6 C 13,1 C 88 % 1022,3 hPa 0,0 l/m 0,00 h 0,00 h 0 W/m 0,0 km/h (0 Bft) 98,65 %
06.09.2021 01:00 15,2 C 13,9 C 12,6 C 90 % 1022,4 hPa 0,0 l/m 0,00 h 0,00 h 0 W/m 0,5 km/h (0 Bft) 97,72 %
06.09.2021 02:00 14,6 C 13,3 C 12,3 C 91 % 1022,4 hPa 0,0 l/m 0,00 h 0,00 h 0 W/m 0,2 km/h (0 Bft) 97,16 %
06.09.2021 03:00 14,0 C 12,8 C 11,7 C 92 % 1022,5 hPa 0,0 l/m 0,00 h 0,00 h 0 W/m 0,2 km/h (0 Bft) 96,79 %
06.09.2021 04:00 13,4 C 12,3 C 11,5 C 93 % 1022,6 hPa 0,0 l/m 0,00 h 0,00 h 0 W/m 0,0 km/h (0 Bft) 98,33 %
06.09.2021 05:00 12,9 C 11,8 C 11,1 C 94 % 1022,6 hPa 0,0 l/m 0,00 h 0,00 h 0 W/m 0,0 km/h (0 Bft) 97,93 %
06.09.2021 06:00 12,4 C 11,3 C 10,7 C 94 % 1022,8 hPa 0,0 l/m 0,00 h 0,00 h 3 W/m 0,0 km/h (0 Bft) 96,62 %
06.09.2021 07:00 12,1 C 11,3 C 10,7 C 95 % 1023,2 hPa 0,0 l/m 0,00 h 0,00 h 19 W/m 0,0 km/h (0 Bft) 97,15 %
06.09.2021 08:00 12,7 C 12,9 C 12,0 C 96 % 1023,5 hPa 0,0 l/m 0,00 h 0,00 h 44 W/m 0,5 km/h (0 Bft) 97,69 %
06.09.2021 09:00 14,4 C 15,7 C 14,0 C 97 % 1024,0 hPa 0,0 l/m 0,60 h 0,00 h 232 W/m 1,7 km/h (1 Bft) 95,52 %
06.09.2021 10:00 17,0 C 20,0 C 17,0 C 94 % 1024,4 hPa 0,0 l/m 0,23 h 0,00 h 177 W/m 3,6 km/h (1 Bft) 98,30 %
06.09.2021 11:00 20,4 C 22,2 C 20,3 C 80 % 1024,7 hPa 0,0 l/m 0,40 h 0,00 h 351 W/m 6,4 km/h (2 Bft) 98,15 %
06.09.2021 12:00 23,5 C 26,0 C 23,8 C 66 % 1024,4 hPa 0,0 l/m 0,80 h 0,00 h 591 W/m 5,8 km/h (1 Bft) 97,55 %
06.09.2021 13:00 24,0 C 25,1 C 21,1 C 62 % 1024,3 hPa 0,0 l/m 0,80 h 0,00 h 617 W/m 6,9 km/h (2 Bft) 96,60 %
06.09.2021 14:00 25,5 C 31,1 C 21,5 C 53 % 1024,3 hPa 0,0 l/m 1,00 h 0,00 h 702 W/m 9,6 km/h (2 Bft) 98,42 %
06.09.2021 15:00 25,6 C 28,3 C 21,2 C 50 % 1024,0 hPa 0,0 l/m 0,60 h 0,00 h 446 W/m 7,1 km/h (2 Bft) 97,84 %
06.09.2021 16:00 25,7 C 30,8 C 21,7 C 50 % 1023,8 hPa 0,0 l/m 1,00 h 0,00 h 542 W/m 10,1 km/h (2 Bft) 97,88 %
06.09.2021 17:00 25,5 C 26,8 C 21,6 C 52 % 1023,7 hPa 0,0 l/m 0,43 h 0,00 h 240 W/m 6,5 km/h (2 Bft) 96,55 %
06.09.2021 18:00 24,1 C 25,1 C 20,3 C 55 % 1023,7 hPa 0,0 l/m 0,37 h 0,00 h 144 W/m 8,0 km/h (2 Bft) 99,44 %
06.09.2021 19:00 23,0 C 22,0 C 18,5 C 60 % 1023,6 hPa 0,0 l/m 0,80 h 0,00 h 51 W/m 3,0 km/h (1 Bft) 94,29 %
06.09.2021 20:00 21,4 C 19,3 C 16,2 C 67 % 1024,0 hPa 0,0 l/m 0,00 h 0,00 h 7 W/m 0,4 km/h (0 Bft) 98,24 %
06.09.2021 21:00 20,0 C 18,2 C 15,2 C 72 % 1024,3 hPa 0,0 l/m 0,00 h 0,00 h 0 W/m 0,3 km/h (0 Bft) 97,92 %
06.09.2021 22:00 18,6 C 16,2 C 13,8 C 79 % 1024,5 hPa 0,0 l/m 0,00 h 0,00 h 0 W/m 0,0 km/h (0 Bft) 97,78 %
06.09.2021 23:00 17,0 C 15,3 C 13,4 C 84 % 1024,5 hPa 0,0 l/m 0,00 h 0,00 h 0 W/m 0,0 km/h (0 Bft) 97,03 %
07.09.2021 00:00 16,1 C 14,7 C 13,0 C 87 % 1024,4 hPa 0,0 l/m 0,00 h 0,00 h 0 W/m 0,0 km/h (0 Bft) 97,79 %
07.09.2021 01:00 15,4 C 14,1 C 12,5 C 89 % 1024,3 hPa 0,0 l/m 0,00 h 0,00 h 0 W/m 0,1 km/h (0 Bft) 99,24 %
07.09.2021 02:00 14,8 C 13,6 C 12,3 C 90 % 1024,3 hPa 0,0 l/m 0,00 h 0,00 h 0 W/m 0,0 km/h (0 Bft) 94,98 %
07.09.2021 03:00 14,3 C 13,1 C 12,1 C 92 % 1024,0 hPa 0,0 l/m 0,00 h 0,00 h 0 W/m 0,0 km/h (0 Bft) 99,11 %
07.09.2021 04:00 13,9 C 12,8 C 11,7 C 93 % 1023,9 hPa 0,0 l/m 0,00 h 0,00 h 0 W/m 0,0 km/h (0 Bft) 97,15 %
07.09.2021 05:00 13,7 C 13,1 C 12,0 C 94 % 1023,7 hPa 0,0 l/m 0,00 h 0,00 h 0 W/m 0,0 km/h (0 Bft) 97,19 %
07.09.2021 06:00 14,1 C 13,8 C 12,5 C 94 % 1023,8 hPa 0,0 l/m 0,00 h 0,00 h 0 W/m 0,0 km/h (0 Bft) 95,71 %
07.09.2021 07:00 14,5 C 14,3 C 13,2 C 95 % 1023,9 hPa 0,0 l/m 0,00 h 0,00 h 22 W/m 0,0 km/h (0 Bft) 99,37 %
07.09.2021 08:00 15,4 C 15,9 C 14,3 C 95 % 1024,1 hPa 0,0 l/m 0,00 h 0,00 h 90 W/m 0,2 km/h (0 Bft) 97,22 %
07.09.2021 09:00 16,8 C 17,8 C 15,9 C 93 % 1024,5 hPa 0,0 l/m 0,23 h 0,00 h 178 W/m 3,1 km/h (1 Bft) 96,67 %
07.09.2021 10:00 18,7 C 20,0 C 17,5 C 86 % 1024,7 hPa 0,0 l/m 0,03 h 0,00 h 180 W/m 4,4 km/h (1 Bft) 98,16 %
07.09.2021 11:00 21,0 C 22,8 C 20,0 C 78 % 1024,6 hPa 0,0 l/m 0,63 h 0,00 h 361 W/m 6,0 km/h (2 Bft) 97,58 %
07.09.2021 12:00 23,3 C 24,8 C 21,7 C 66 % 1024,2 hPa 0,0 l/m 0,97 h 0,00 h 422 W/m 6,2 km/h (2 Bft) 95,40 %
07.09.2021 13:00 24,4 C 25,7 C 20,9 C 61 % 1023,8 hPa 0,0 l/m 0,77 h 0,00 h 620 W/m 6,5 km/h (2 Bft) 98,78 %
07.09.2021 14:00 26,0 C 32,3 C 21,5 C 55 % 1023,5 hPa 0,0 l/m 1,00 h 0,00 h 694 W/m 8,0 km/h (2 Bft) 97,36 %
07.09.2021 15:00 26,6 C 31,3 C 22,0 C 54 % 1022,9 hPa 0,0 l/m 1,00 h 0,00 h 650 W/m 8,9 km/h (2 Bft) 96,77 %
07.09.2021 16:00 26,8 C 34,2 C 22,8 C 52 % 1022,3 hPa 0,0 l/m 1,00 h 0,00 h 538 W/m 8,6 km/h (2 Bft) 96,75 %
07.09.2021 17:00 26,9 C 32,3 C 22,9 C 53 % 1021,9 hPa 0,0 l/m 1,00 h 0,00 h 341 W/m 7,3 km/h (2 Bft) 98,49 %
07.09.2021 18:00 26,0 C 29,7 C 21,7 C 57 % 1021,6 hPa 0,0 l/m 0,87 h 0,00 h 171 W/m 7,0 km/h (2 Bft) 97,74 %
07.09.2021 19:00 23,5 C 22,2 C 18,5 C 65 % 1021,2 hPa 0,0 l/m 0,00 h 0,00 h 25 W/m 2,8 km/h (1 Bft) 95,73 %
07.09.2021 20:00 21,2 C 19,7 C 16,7 C 72 % 1021,2 hPa 0,0 l/m 0,00 h 0,00 h 5 W/m 0,0 km/h (0 Bft) 99,50 %
07.09.2021 21:00 19,8 C 18,8 C 15,9 C 76 % 1021,3 hPa 0,0 l/m 0,00 h 0,00 h 0 W/m 0,0 km/h (0 Bft) 95,66 %
07.09.2021 22:00 18,8 C 17,6 C 15,1 C 80 % 1021,1 hPa 0,0 l/m 0,00 h 0,00 h 0 W/m 0,0 km/h (0 Bft) 98,29 %
07.09.2021 23:00 18,1 C 16,6 C 14,4 C 83 % 1021,0 hPa 0,0 l/m 0,00 h 0,00 h 0 W/m 0,0 km/h (0 Bft) 97,73 %
08.09.2021 00:00 17,1 C 16,0 C 13,9 C 85 % 1020,6 hPa 0,0 l/m 0,00 h 0,00 h 0 W/m 0,0 km/h (0 Bft) 98,40 %
08.09.2021 01:00 16,5 C 15,2 C 13,5 C 88 % 1020,3 hPa 0,0 l/m 0,00 h 0,00 h 0 W/m 0,0 km/h (0 Bft) 96,30 %
08.09.2021 02:00 15,9 C 15,0 C 13,4 C 90 % 1019,9 hPa 0,0 l/m 0,00 h 0,00 h 0 W/m 0,0 km/h (0 Bft) 95,99 %
08.09.2021 03:00 15,5 C 14,4 C 12,8 C 90 % 1019,6 hPa 0,0 l/m 0,00 h 0,00 h 0 W/m 0,0 km/h (0 Bft) 98,79 %
08.09.2021 04:00 15,0 C 13,9 C 12,6 C 91 % 1019,4 hPa 0,0 l/m 0,00 h 0,00 h 0 W/m 0,0 km/h (0 Bft) 95,59 %
08.09.2021 05:00 14,5 C 13,3 C 12,3 C 92 % 1019,2 hPa 0,0 l/m 0,00 h 0,00 h 0 W/m 0,0 km/h (0 Bft) 98,50 %
08.09.2021 06:00 14,2 C 13,3 C 12,3 C 93 % 1018,9 hPa 0,0 l/m 0,00 h 0,00 h 0 W/m 0,0 km/h (0 Bft) 97,31 %
08.09.2021 07:00 14,2 C 13,6 C 12,4 C 94 % 1018,7 hPa 0,0 l/m 0,00 h 0,00 h 14 W/m 0,0 km/h (0 Bft) 98,43 %
08.09.2021 08:00 14,7 C 14,8 C 13,3 C 94 % 1018,6 hPa 0,0 l/m 0,00 h 0,00 h 31 W/m 0,0 km/h (0 Bft) 93,95 %
08.09.2021 09:00 16,8 C 18,0 C 15,9 C 92 % 1018,3 hPa 0,0 l/m 0,30 h 0,00 h 145 W/m 5,9 km/h (2 Bft) 98,66 %
08.09.2021 10:00 20,4 C 21,1 C 18,4 C 77 % 1018,1 hPa 0,0 l/m 0,00 h 0,00 h 89 W/m 10,7 km/h (2 Bft) 97,64 %
08.09.2021 11:00 22,6 C 23,7 C 21,4 C 71 % 1017,7 hPa 0,0 l/m 0,53 h 0,00 h 394 W/m 9,7 km/h (2 Bft) 97,08 %
08.09.2021 12:00 25,4 C 27,0 C 25,1 C 62 % 1017,1 hPa 0,0 l/m 0,80 h 0,00 h 594 W/m 9,8 km/h (2 Bft) 97,45 %
08.09.2021 13:00 26,6 C 27,1 C 22,8 C 57 % 1016,5 hPa 0,0 l/m 0,73 h 0,00 h 608 W/m 11,4 km/h (2 Bft) 97,88 %
08.09.2021 14:00 28,0 C 32,4 C 23,3 C 53 % 1015,9 hPa 0,0 l/m 1,00 h 0,00 h 708 W/m 12,1 km/h (2 Bft) 97,65 %
08.09.2021 15:00 28,4 C 31,6 C 23,7 C 50 % 1015,2 hPa 0,0 l/m 1,00 h 0,00 h 639 W/m 12,6 km/h (3 Bft) 97,15 %
08.09.2021 16:00 28,6 C 33,8 C 24,0 C 50 % 1014,5 hPa 0,0 l/m 1,00 h 0,00 h 527 W/m 11,6 km/h (2 Bft) 98,37 %
08.09.2021 17:00 28,6 C 32,7 C 24,0 C 50 % 1013,8 hPa 0,0 l/m 1,00 h 0,00 h 361 W/m 9,4 km/h (2 Bft) 97,03 %
08.09.2021 18:00 27,8 C 30,4 C 23,5 C 50 % 1013,2 hPa 0,0 l/m 0,87 h 0,00 h 172 W/m 9,7 km/h (2 Bft) 96,06 %
08.09.2021 19:00 25,8 C 24,3 C 21,2 C 55 % 1012,9 hPa 0,0 l/m 0,00 h 0,00 h 23 W/m 4,6 km/h (1 Bft) 94,23 %
08.09.2021 20:00 23,5 C 21,3 C 18,4 C 64 % 1013,0 hPa 0,0 l/m 0,00 h 0,00 h 4 W/m 1,6 km/h (1 Bft) 99,07 %
08.09.2021 21:00 21,0 C 19,1 C 16,3 C 72 % 1012,9 hPa 0,0 l/m 0,00 h 0,00 h 0 W/m 1,0 km/h (0 Bft) 95,10 %
08.09.2021 22:00 19,4 C 17,7 C 15,2 C 78 % 1012,7 hPa 0,0 l/m 0,00 h 0,00 h 0 W/m 0,6 km/h (0 Bft) 99,36 %
08.09.2021 23:00 18,3 C 16,9 C 14,7 C 82 % 1012,6 hPa 0,0 l/m 0,00 h 0,00 h 0 W/m 0,0 km/h (0 Bft) 97,30 %
09.09.2021 00:00 17,4 C 16,2 C 14,0 C 84 % 1012,4 hPa 0,0 l/m 0,00 h 0,00 h 0 W/m 0,0 km/h (0 Bft) 93,22 %
09.09.2021 01:00 16,7 C 15,6 C 13,7 C 86 % 1012,1 hPa 0,0 l/m 0,00 h 0,00 h 0 W/m 0,2 km/h (0 Bft) 96,32 %
09.09.2021 02:00 16,4 C 15,6 C 13,7 C 87 % 1011,7 hPa 0,0 l/m 0,00 h 0,00 h 0 W/m 1,4 km/h (1 Bft) 98,00 %
09.09.2021 03:00 16,1 C 15,1 C 13,4 C 87 % 1011,1 hPa 0,0 l/m 0,00 h 0,00 h 0 W/m 1,1 km/h (0 Bft) 98,14 %
09.09.2021 04:00 16,0 C 15,6 C 13,7 C 87 % 1010,8 hPa 0,0 l/m 0,00 h 0,00 h 0 W/m 3,0 km/h (1 Bft) 96,09 %
09.09.2021 05:00 16,0 C 15,5 C 13,9 C 86 % 1010,6 hPa 0,0 l/m 0,00 h 0,00 h 0 W/m 3,0 km/h (1 Bft) 99,63 %
09.09.2021 06:00 15,8 C 15,0 C 13,4 C 86 % 1010,5 hPa 0,0 l/m 0,00 h 0,00 h 0 W/m 3,1 km/h (1 Bft) 95,94 %
09.09.2021 07:00 15,6 C 15,1 C 13,5 C 87 % 1010,5 hPa 0,0 l/m 0,00 h 0,00 h 16 W/m 4,5 km/h (1 Bft) 95,88 %
09.09.2021 08:00 16,5 C 16,4 C 14,6 C 86 % 1010,5 hPa 0,0 l/m 0,00 h 0,00 h 40 W/m 7,7 km/h (2 Bft) 98,00 %
09.09.2021 09:00 18,6 C 18,7 C 16,4 C 81 % 1010,4 hPa 0,0 l/m 0,13 h 0,00 h 126 W/m 10,4 km/h (2 Bft) 96,22 %
09.09.2021 10:00 21,0 C 21,6 C 18,6 C 76 % 1010,7 hPa 0,0 l/m 0,07 h 0,00 h 124 W/m 10,1 km/h (2 Bft) 97,66 %
09.09.2021 11:00 23,2 C 24,4 C 22,0 C 71 % 1010,7 hPa 0,0 l/m 0,63 h 0,00 h 427 W/m 11,4 km/h (2 Bft) 98,86 %
09.09.2021 12:00 25,7 C 27,5 C 25,7 C 67 % 1010,6 hPa 0,0 l/m 0,93 h 0,00 h 573 W/m 11,6 km/h (2 Bft) 94,66 %
09.09.2021 13:00 26,3 C 26,5 C 23,5 C 69 % 1010,6 hPa 0,0 l/m 0,40 h 0,00 h 383 W/m 13,8 km/h (3 Bft) 95,01 %
09.09.2021 14:00 26,8 C 28,0 C 23,7 C 68 % 1010,6 hPa 0,0 l/m 0,60 h 0,00 h 397 W/m 11,7 km/h (2 Bft) 97,94 %
09.09.2021 15:00 28,2 C 30,4 C 24,0 C 65 % 1010,3 hPa 0,0 l/m 0,80 h 0,00 h 528 W/m 12,6 km/h (3 Bft) 96,01 %
09.09.2021 16:00 27,7 C 30,1 C 24,0 C 66 % 1010,2 hPa 0,0 l/m 0,77 h 0,00 h 404 W/m 11,2 km/h (2 Bft) 98,64 %
09.09.2021 17:00 27,3 C 28,5 C 23,8 C 66 % 1010,2 hPa 0,0 l/m 0,43 h 0,00 h 253 W/m 12,1 km/h (2 Bft) 97,43 %
09.09.2021 18:00 26,0 C 26,2 C 22,8 C 70 % 1010,5 hPa 0,0 l/m 0,90 h 0,00 h 211 W/m 16,4 km/h (3 Bft) 97,21 %
09.09.2021 19:00 24,9 C 23,9 C 21,3 C 74 % 1010,6 hPa 0,0 l/m 0,37 h 0,00 h 39 W/m 9,5 km/h (2 Bft) 98,08 %
09.09.2021 20:00 24,3 C 23,2 C 20,6 C 76 % 1011,1 hPa 0,0 l/m 0,00 h 0,00 h 0 W/m 9,7 km/h (2 Bft) 97,29 %
09.09.2021 21:00 23,5 C 22,3 C 19,8 C 79 % 1011,5 hPa 0,0 l/m 0,00 h 0,00 h 0 W/m 3,4 km/h (1 Bft) 96,23 %
09.09.2021 22:00 22,5 C 21,0 C 19,0 C 84 % 1011,6 hPa 0,0 l/m 0,00 h 0,00 h 0 W/m 5,3 km/h (1 Bft) 96,93 %
09.09.2021 23:00 21,7 C 20,9 C 18,9 C 82 % 1011,8 hPa 0,0 l/m 0,00 h 0,00 h 0 W/m 9,6 km/h (2 Bft) 97,50 %
10.09.2021 00:00 21,4 C 20,4 C 18,5 C 83 % 1011,9 hPa 0,0 l/m 0,00 h 0,00 h 0 W/m 6,6 km/h (2 Bft) 97,67 %
10.09.2021 01:00 20,8 C 19,8 C 17,8 C 85 % 1012,0 hPa 0,0 l/m 0,00 h 0,00 h 0 W/m 3,4 km/h (1 Bft) 96,65 %
10.09.2021 02:00 20,4 C 19,3 C 17,7 C 87 % 1012,1 hPa 0,0 l/m 0,00 h 0,00 h 0 W/m 3,8 km/h (1 Bft) 99,07 %
10.09.2021 03:00 19,8 C 18,9 C 17,3 C 89 % 1012,1 hPa 0,0 l/m 0,00 h 0,00 h 0 W/m 3,5 km/h (1 Bft) 96,65 %
10.09.2021 04:00 19,3 C 18,3 C 16,8 C 90 % 1012,0 hPa 0,0 l/m 0,00 h 0,00 h 0 W/m 3,0 km/h (1 Bft) 97,79 %
10.09.2021 05:00 19,0 C 18,1 C 16,7 C 92 % 1011,9 hPa 0,0 l/m 0,00 h 0,00 h 0 W/m 3,9 km/h (1 Bft) 97,79 %
10.09.2021 06:00 18,8 C 17,8 C 16,6 C 93 % 1011,8 hPa 0,0 l/m 0,00 h 0,00 h 0 W/m 3,6 km/h (1 Bft) 97,60 %
10.09.2021 07:00 18,3 C 17,3 C 16,2 C 94 % 1012,1 hPa 0,0 l/m 0,13 h 0,00 h 30 W/m 6,1 km/h (2 Bft) 96,44 %
10.09.2021 08:00 19,1 C 19,6 C 18,1 C 94 % 1012,6 hPa 0,0 l/m 0,93 h 0,00 h 144 W/m 6,9 km/h (2 Bft) 97,72 %
10.09.2021 09:00 20,8 C 20,6 C 18,8 C 89 % 1013,0 hPa 0,0 l/m 0,00 h 0,10 h 112 W/m 7,9 km/h (2 Bft) 96,09 %
10.09.2021 10:00 21,7 C 22,3 C 20,1 C 85 % 1013,3 hPa 0,0 l/m 0,63 h 0,00 h 251 W/m 12,6 km/h (3 Bft) 98,43 %
10.09.2021 11:00 23,0 C 23,2 C 21,4 C 79 % 1013,6 hPa 0,0 l/m 0,50 h 0,00 h 280 W/m 13,9 km/h (3 Bft) 97,69 %
10.09.2021 12:00 21,8 C 21,2 C 18,7 C 88 % 1013,9 hPa 0,8 l/m 0,03 h 0,30 h 204 W/m 8,1 km/h (2 Bft) 92,57 %
10.09.2021 13:00 22,6 C 23,2 C 19,8 C 87 % 1013,4 hPa 0,0 l/m 0,57 h 0,00 h 353 W/m 6,9 km/h (2 Bft) 96,73 %
10.09.2021 14:00 22,6 C 21,1 C 19,3 C 85 % 1013,3 hPa 3,8 l/m 0,03 h 0,40 h 120 W/m 6,8 km/h (2 Bft) 92,79 %
10.09.2021 15:00 22,2 C 21,9 C 18,8 C 92 % 1013,1 hPa 0,2 l/m 0,30 h 0,27 h 199 W/m 5,9 km/h (2 Bft) 89,59 %
10.09.2021 16:00 21,9 C 21,4 C 18,7 C 92 % 1013,2 hPa 0,2 l/m 0,13 h 0,43 h 178 W/m 7,9 km/h (2 Bft) 99,58 %
10.09.2021 17:00 21,6 C 22,4 C 18,4 C 90 % 1013,4 hPa 0,0 l/m 0,47 h 0,07 h 207 W/m 8,6 km/h (2 Bft) 97,39 %
10.09.2021 18:00 22,0 C 23,2 C 18,4 C 87 % 1013,5 hPa 0,0 l/m 0,50 h 0,00 h 132 W/m 7,6 km/h (2 Bft) 96,87 %
10.09.2021 19:00 21,5 C 20,6 C 17,6 C 85 % 1013,7 hPa 0,0 l/m 0,33 h 0,00 h 34 W/m 4,6 km/h (1 Bft) 95,25 %
10.09.2021 20:00 20,4 C 18,7 C 16,8 C 88 % 1014,0 hPa 0,0 l/m 0,00 h 0,00 h 4 W/m 0,9 km/h (0 Bft) 97,87 %
10.09.2021 21:00 19,6 C 18,5 C 17,4 C 90 % 1014,6 hPa 0,0 l/m 0,00 h 0,00 h 0 W/m 3,0 km/h (1 Bft) 96,02 %
10.09.2021 22:00 19,4 C 18,4 C 17,4 C 92 % 1014,7 hPa 0,0 l/m 0,00 h 0,00 h 0 W/m 4,4 km/h (1 Bft) 99,86 %
10.09.2021 23:00 19,1 C 18,3 C 17,3 C 93 % 1014,8 hPa 0,0 l/m 0,00 h 0,00 h 0 W/m 4,9 km/h (1 Bft) 95,59 %
11.09.2021 00:00 18,7 C 17,4 C 16,8 C 93 % 1014,8 hPa 0,0 l/m 0,00 h 0,00 h 0 W/m 4,4 km/h (1 Bft) 98,26 %
11.09.2021 01:00 18,2 C 17,1 C 16,7 C 94 % 1015,1 hPa 0,0 l/m 0,00 h 0,00 h 0 W/m 4,8 km/h (1 Bft) 98,22 %
11.09.2021 02:00 17,9 C 17,0 C 16,5 C 95 % 1015,1 hPa 0,0 l/m 0,00 h 0,00 h 0 W/m 6,1 km/h (2 Bft) 96,23 %
11.09.2021 03:00 18,2 C 17,5 C 16,9 C 95 % 1015,4 hPa 0,0 l/m 0,00 h 0,00 h 0 W/m 5,1 km/h (1 Bft) 97,01 %
11.09.2021 04:00 17,8 C 16,7 C 16,2 C 95 % 1015,6 hPa 0,0 l/m 0,00 h 0,00 h 0 W/m 3,5 km/h (1 Bft) 99,29 %
11.09.2021 05:00 17,2 C 16,3 C 15,9 C 96 % 1015,8 hPa 0,0 l/m 0,00 h 0,00 h 0 W/m 4,7 km/h (1 Bft) 94,71 %
11.09.2021 06:00 16,7 C 16,1 C 15,9 C 96 % 1016,1 hPa 0,0 l/m 0,00 h 0,00 h 0 W/m 6,3 km/h (2 Bft) 99,33 %
11.09.2021 07:00 16,5 C 15,9 C 15,8 C 95 % 1016,4 hPa 0,0 l/m 0,00 h 0,00 h 13 W/m 5,8 km/h (2 Bft) 97,58 %
11.09.2021 08:00 16,7 C 16,5 C 16,0 C 93 % 1016,7 hPa 0,0 l/m 0,00 h 0,00 h 56 W/m 10,8 km/h (2 Bft) 94,81 %
11.09.2021 09:00 17,7 C 17,7 C 17,0 C 89 % 1017,1 hPa 0,0 l/m 0,00 h 0,00 h 135 W/m 13,7 km/h (3 Bft) 98,27 %
11.09.2021 10:00 18,9 C 19,1 C 17,8 C 84 % 1017,3 hPa 0,0 l/m 0,10 h 0,00 h 150 W/m 15,2 km/h (3 Bft) 97,55 %
11.09.2021 11:00 20,5 C 21,3 C 20,2 C 78 % 1017,4 hPa 0,0 l/m 0,77 h 0,00 h 369 W/m 17,2 km/h (3 Bft) 96,19 %
11.09.2021 12:00 21,0 C 21,2 C 20,2 C 78 % 1017,4 hPa 0,0 l/m 0,17 h 0,00 h 240 W/m 16,0 km/h (3 Bft) 98,90 %
11.09.2021 13:00 21,1 C 21,8 C 19,6 C 78 % 1017,3 hPa 0,0 l/m 0,50 h 0,00 h 378 W/m 13,3 km/h (3 Bft) 96,47 %
11.09.2021 14:00 21,8 C 22,1 C 19,9 C 76 % 1017,1 hPa 0,0 l/m 0,20 h 0,00 h 279 W/m 14,6 km/h (3 Bft) 98,69 %
11.09.2021 15:00 21,7 C 22,0 C 19,9 C 76 % 1017,1 hPa 0,0 l/m 0,50 h 0,00 h 291 W/m 14,8 km/h (3 Bft) 95,59 %
11.09.2021 16:00 21,1 C 20,7 C 19,0 C 78 % 1017,2 hPa 0,0 l/m 0,07 h 0,00 h 147 W/m 13,2 km/h (3 Bft) 99,06 %
11.09.2021 17:00 20,3 C 20,0 C 18,3 C 82 % 1017,3 hPa 0,0 l/m 0,00 h 0,00 h 122 W/m 7,6 km/h (2 Bft) 98,42 %
11.09.2021 18:00 20,7 C 20,2 C 18,3 C 81 % 1017,3 hPa 0,0 l/m 0,03 h 0,00 h 69 W/m 10,5 km/h (2 Bft) 96,00 %
11.09.2021 19:00 19,2 C 18,3 C 16,7 C 87 % 1017,5 hPa 0,0 l/m 0,00 h 0,13 h 16 W/m 14,2 km/h (3 Bft) 98,03 %
11.09.2021 20:00 18,4 C 17,6 C 16,2 C 90 % 1017,9 hPa 0,2 l/m 0,00 h 0,20 h 0 W/m 8,6 km/h (2 Bft) 99,15 %
11.09.2021 21:00 17,9 C 16,7 C 15,6 C 94 % 1018,3 hPa 0,8 l/m 0,00 h 0,23 h 0 W/m 4,3 km/h (1 Bft) 94,73 %
11.09.2021 22:00 17,8 C 16,7 C 15,6 C 96 % 1018,3 hPa 0,2 l/m 0,00 h 0,00 h 0 W/m 3,7 km/h (1 Bft) 99,57 %
11.09.2021 23:00 17,6 C 16,7 C 15,6 C 96 % 1018,4 hPa 0,0 l/m 0,00 h 0,00 h 0 W/m 0,3 km/h (0 Bft) 98,03 %
12.09.2021 00:00 17,5 C 16,7 C 15,6 C 96 % 1018,5 hPa 0,0 l/m 0,00 h 0,00 h 0 W/m 2,1 km/h (1 Bft) 95,24 %
12.09.2021 01:00 17,4 C 16,7 C 15,6 C 96 % 1018,5 hPa 0,0 l/m 0,00 h 0,00 h 0 W/m 0,3 km/h (0 Bft) 98,36 %
12.09.2021 02:00 17,3 C 16,6 C 15,6 C 96 % 1018,3 hPa 0,0 l/m 0,00 h 0,03 h 0 W/m 0,6 km/h (0 Bft) 98,08 %
12.09.2021 03:00 16,9 C 16,1 C 15,6 C 96 % 1018,1 hPa 0,0 l/m 0,00 h 0,00 h 0 W/m 5,5 km/h (1 Bft) 95,87 %
12.09.2021 04:00 16,5 C 15,7 C 15,1 C 96 % 1018,0 hPa 0,0 l/m 0,00 h 0,00 h 0 W/m 3,5 km/h (1 Bft) 98,72 %
12.09.2021 05:00 15,8 C 15,0 C 14,6 C 96 % 1018,0 hPa 0,0 l/m 0,00 h 0,00 h 0 W/m 2,5 km/h (1 Bft) 97,22 %
12.09.2021 06:00 14,8 C 13,9 C 13,7 C 94 % 1018,0 hPa 0,0 l/m 0,00 h 0,00 h 0 W/m 0,9 km/h (0 Bft) 96,02 %
12.09.2021 07:00 14,4 C 13,8 C 13,6 C 95 % 1018,4 hPa 0,0 l/m 0,00 h 0,00 h 18 W/m 1,0 km/h (0 Bft) 99,36 %
12.09.2021 08:00 14,9 C 14,8 C 14,6 C 94 % 1018,7 hPa 0,0 l/m 0,00 h 0,00 h 67 W/m 3,8 km/h (1 Bft) 96,94 %
12.09.2021 09:00 15,7 C 15,9 C 15,5 C 91 % 1018,8 hPa 0,0 l/m 0,07 h 0,00 h 126 W/m 8,7 km/h (2 Bft) 97,55 %
12.09.2021 10:00 17,0 C 17,6 C 16,5 C 84 % 1019,0 hPa 0,0 l/m 0,30 h 0,00 h 224 W/m 11,3 km/h (2 Bft) 97,39 %
12.09.2021 11:00 18,8 C 20,0 C 19,2 C 76 % 1019,1 hPa 0,0 l/m 0,50 h 0,00 h 386 W/m 13,4 km/h (3 Bft) 97,15 %
12.09.2021 12:00 20,2 C 21,5 C 20,8 C 69 % 1018,8 hPa 0,0 l/m 0,60 h 0,00 h 484 W/m 15,9 km/h (3 Bft) 97,00 %
12.09.2021 13:00 20,3 C 21,1 C 18,5 C 69 % 1018,6 hPa 0,0 l/m 0,60 h 0,00 h 472 W/m 12,6 km/h (3 Bft) 99,61 %
12.09.2021 14:00 21,3 C 24,5 C 18,6 C 66 % 1018,4 hPa 0,0 l/m 0,67 h 0,00 h 544 W/m 10,4 km/h (2 Bft) 95,06 %
12.09.2021 15:00 21,2 C 22,0 C 18,6 C 68 % 1018,3 hPa 0,0 l/m 0,30 h 0,00 h 355 W/m 8,9 km/h (2 Bft) 97,98 %
12.09.2021 16:00 21,8 C 24,3 C 18,9 C 69 % 1018,0 hPa 0,0 l/m 0,53 h 0,00 h 386 W/m 9,0 km/h (2 Bft) 98,06 %
12.09.2021 17:00 21,6 C 24,7 C 18,4 C 70 % 1017,8 hPa 0,0 l/m 0,67 h 0,00 h 262 W/m 6,4 km/h (2 Bft) 97,47 %
12.09.2021 18:00 21,2 C 21,9 C 18,0 C 71 % 1017,5 hPa 0,0 l/m 0,50 h 0,00 h 105 W/m 4,1 km/h (1 Bft) 96,97 %
12.09.2021 19:00 20,4 C 18,4 C 16,3 C 74 % 1017,4 hPa 0,0 l/m 0,00 h 0,00 h 21 W/m 1,2 km/h (1 Bft) 97,21 %
12.09.2021 20:00 18,3 C 16,0 C 14,4 C 82 % 1017,8 hPa 0,0 l/m 0,00 h 0,00 h 0 W/m 0,0 km/h (0 Bft) 97,91 %
12.09.2021 21:00 16,7 C 15,0 C 13,8 C 88 % 1018,3 hPa 0,0 l/m 0,00 h 0,00 h 0 W/m 0,0 km/h (0 Bft) 98,36 %
12.09.2021 22:00 15,9 C 14,5 C 13,4 C 90 % 1018,4 hPa 0,0 l/m 0,00 h 0,00 h 0 W/m 0,0 km/h (0 Bft) 96,47 %
12.09.2021 23:00 15,4 C 14,4 C 13,4 C 92 % 1018,7 hPa 0,0 l/m 0,00 h 0,00 h 0 W/m 2,6 km/h (1 Bft) 96,14 %
Min-Datum _ 06.09.21 06.09.21 06.09.21 06.09.21 09.09.21 - - - - 06.09.21 09.09.21
_ Min-Zeit 07:30 06:18 06:14 15:14 16:58 - - - - 00:00 00:02
Minimum _ 12,0 C 11,1 C 10,6 C 46 % 1010,0 hPa - - - - 0,0 km/h (0 Bft) 15,38 %
Max-Datum _ 08.09.21 07.09.21 08.09.21 06.09.21 07.09.21 10.09.21 06.09.21 10.09.21 11.09.21 09.09.21 06.09.21
_ Max-Zeit 16:16 16:36 12:10 09:02 10:30 14:34 12:08 09:38 13:58 18:30 00:02
Maximum _ 28,8 C 35,6 C 28,9 C 97 % 1024,8 hPa 3,8 l/m 0,07 h 0,03 h 892 W/m 32,2 km/h
SO (5 Bft)
100,00 %
Durchschnitt _ 19,7 C 19,8 C 17,3 C 81 % 1017,5 hPa #6,2 l/m #39:26 h #2:10 h 253 W/m 5,5 km/h (1 Bft) 97,23 %
© 2021 W. Hausmann